sensor_id;sensor_type;location;lat;lon;timestamp;temperature;humidity
46754;DHT22;32500;50.620;3.400;2022-09-01T00:01:16;26.00;50.70
46754;DHT22;32500;50.620;3.400;2022-09-01T00:03:49;26.00;50.80
46754;DHT22;32500;50.620;3.400;2022-09-01T00:06:18;26.00;50.80
46754;DHT22;32500;50.620;3.400;2022-09-01T00:08:51;26.00;50.80
46754;DHT22;32500;50.620;3.400;2022-09-01T00:11:17;26.00;50.80
46754;DHT22;32500;50.620;3.400;2022-09-01T00:13:43;26.00;50.90
46754;DHT22;32500;50.620;3.400;2022-09-01T00:16:09;26.00;50.90
46754;DHT22;32500;50.620;3.400;2022-09-01T00:18:39;25.90;50.80
46754;DHT22;32500;50.620;3.400;2022-09-01T00:21:07;25.90;50.80
46754;DHT22;32500;50.620;3.400;2022-09-01T00:23:33;26.00;50.90
46754;DHT22;32500;50.620;3.400;2022-09-01T00:25:59;25.90;50.80
46754;DHT22;32500;50.620;3.400;2022-09-01T00:28:24;25.90;50.90
46754;DHT22;32500;50.620;3.400;2022-09-01T00:30:50;25.90;50.90
46754;DHT22;32500;50.620;3.400;2022-09-01T00:33:16;25.90;51.00
46754;DHT22;32500;50.620;3.400;2022-09-01T00:35:42;25.90;51.10
46754;DHT22;32500;50.620;3.400;2022-09-01T00:38:07;25.90;51.10
46754;DHT22;32500;50.620;3.400;2022-09-01T00:40:33;25.80;51.10
46754;DHT22;32500;50.620;3.400;2022-09-01T00:42:59;25.90;51.10
46754;DHT22;32500;50.620;3.400;2022-09-01T00:45:25;25.80;51.20
46754;DHT22;32500;50.620;3.400;2022-09-01T00:47:51;25.80;51.20
46754;DHT22;32500;50.620;3.400;2022-09-01T00:50:18;25.80;51.30
46754;DHT22;32500;50.620;3.400;2022-09-01T00:52:48;25.80;51.30
46754;DHT22;32500;50.620;3.400;2022-09-01T00:55:21;25.80;51.30
46754;DHT22;32500;50.620;3.400;2022-09-01T00:57:47;25.80;51.30
46754;DHT22;32500;50.620;3.400;2022-09-01T01:00:18;25.80;51.30
46754;DHT22;32500;50.620;3.400;2022-09-01T01:02:46;25.70;51.20
46754;DHT22;32500;50.620;3.400;2022-09-01T01:05:13;25.80;51.30
46754;DHT22;32500;50.620;3.400;2022-09-01T01:07:40;25.70;51.20
46754;DHT22;32500;50.620;3.400;2022-09-01T01:10:11;25.70;51.30
46754;DHT22;32500;50.620;3.400;2022-09-01T01:12:39;25.70;51.40
46754;DHT22;32500;50.620;3.400;2022-09-01T01:15:09;25.70;51.40
46754;DHT22;32500;50.620;3.400;2022-09-01T01:17:36;25.70;51.40
46754;DHT22;32500;50.620;3.400;2022-09-01T01:20:02;25.60;51.40
46754;DHT22;32500;50.620;3.400;2022-09-01T01:25:54;25.60;51.40
46754;DHT22;32500;50.620;3.400;2022-09-01T01:28:26;25.70;51.40
46754;DHT22;32500;50.620;3.400;2022-09-01T01:31:08;25.60;51.50
46754;DHT22;32500;50.620;3.400;2022-09-01T01:33:45;25.60;51.40
46754;DHT22;32500;50.620;3.400;2022-09-01T01:36:20;25.60;51.50
46754;DHT22;32500;50.620;3.400;2022-09-01T01:38:50;25.60;51.60
46754;DHT22;32500;50.620;3.400;2022-09-01T01:41:17;25.60;51.60
46754;DHT22;32500;50.620;3.400;2022-09-01T01:43:44;25.60;51.60
46754;DHT22;32500;50.620;3.400;2022-09-01T01:46:11;25.60;51.60
46754;DHT22;32500;50.620;3.400;2022-09-01T01:48:41;25.60;51.60
46754;DHT22;32500;50.620;3.400;2022-09-01T01:51:08;25.60;51.60
46754;DHT22;32500;50.620;3.400;2022-09-01T01:53:35;25.60;51.70
46754;DHT22;32500;50.620;3.400;2022-09-01T01:56:02;25.50;51.70
46754;DHT22;32500;50.620;3.400;2022-09-01T01:58:28;25.50;51.70
46754;DHT22;32500;50.620;3.400;2022-09-01T02:00:55;25.50;51.70
46754;DHT22;32500;50.620;3.400;2022-09-01T02:03:31;25.50;51.70
46754;DHT22;32500;50.620;3.400;2022-09-01T02:06:00;25.50;51.70
46754;DHT22;32500;50.620;3.400;2022-09-01T02:08:29;25.50;51.80
46754;DHT22;32500;50.620;3.400;2022-09-01T02:10:55;25.50;51.70
46754;DHT22;32500;50.620;3.400;2022-09-01T02:13:23;25.50;51.70
46754;DHT22;32500;50.620;3.400;2022-09-01T02:15:57;25.50;51.70
46754;DHT22;32500;50.620;3.400;2022-09-01T02:18:27;25.50;51.70
46754;DHT22;32500;50.620;3.400;2022-09-01T02:20:53;25.50;51.80
46754;DHT22;32500;50.620;3.400;2022-09-01T02:23:21;25.50;51.70
46754;DHT22;32500;50.620;3.400;2022-09-01T02:25:52;25.50;51.70
46754;DHT22;32500;50.620;3.400;2022-09-01T02:28:19;25.40;51.70
46754;DHT22;32500;50.620;3.400;2022-09-01T02:30:48;25.40;51.70
46754;DHT22;32500;50.620;3.400;2022-09-01T02:33:16;25.40;51.80
46754;DHT22;32500;50.620;3.400;2022-09-01T02:35:49;25.40;51.80
46754;DHT22;32500;50.620;3.400;2022-09-01T02:38:16;25.40;51.80
46754;DHT22;32500;50.620;3.400;2022-09-01T02:40:43;25.40;51.80
46754;DHT22;32500;50.620;3.400;2022-09-01T02:43:10;25.40;51.80
46754;DHT22;32500;50.620;3.400;2022-09-01T02:45:37;25.40;51.80
46754;DHT22;32500;50.620;3.400;2022-09-01T02:48:03;25.40;51.80
46754;DHT22;32500;50.620;3.400;2022-09-01T02:50:35;25.40;51.90
46754;DHT22;32500;50.620;3.400;2022-09-01T02:53:01;25.40;52.00
46754;DHT22;32500;50.620;3.400;2022-09-01T02:55:27;25.40;51.90
46754;DHT22;32500;50.620;3.400;2022-09-01T02:57:52;25.30;51.90
46754;DHT22;32500;50.620;3.400;2022-09-01T03:00:23;25.30;51.90
46754;DHT22;32500;50.620;3.400;2022-09-01T03:02:59;25.30;51.90
46754;DHT22;32500;50.620;3.400;2022-09-01T03:05:27;25.30;52.00
46754;DHT22;32500;50.620;3.400;2022-09-01T03:07:56;25.30;52.00
46754;DHT22;32500;50.620;3.400;2022-09-01T03:10:28;25.30;52.00
46754;DHT22;32500;50.620;3.400;2022-09-01T03:13:05;25.30;52.00
46754;DHT22;32500;50.620;3.400;2022-09-01T03:15:31;25.30;52.10
46754;DHT22;32500;50.620;3.400;2022-09-01T03:17:58;25.20;51.90
46754;DHT22;32500;50.620;3.400;2022-09-01T03:20:28;25.30;52.10
46754;DHT22;32500;50.620;3.400;2022-09-01T03:22:55;25.20;52.00
46754;DHT22;32500;50.620;3.400;2022-09-01T03:25:24;25.20;52.00
46754;DHT22;32500;50.620;3.400;2022-09-01T03:27:52;25.20;52.00
46754;DHT22;32500;50.620;3.400;2022-09-01T03:30:19;25.20;52.10
46754;DHT22;32500;50.620;3.400;2022-09-01T03:32:45;25.20;52.10
46754;DHT22;32500;50.620;3.400;2022-09-01T03:35:12;25.20;52.10
46754;DHT22;32500;50.620;3.400;2022-09-01T03:37:38;25.20;52.10
46754;DHT22;32500;50.620;3.400;2022-09-01T03:40:06;25.20;52.20
46754;DHT22;32500;50.620;3.400;2022-09-01T03:42:34;25.20;52.20
46754;DHT22;32500;50.620;3.400;2022-09-01T03:45:01;25.20;52.20
46754;DHT22;32500;50.620;3.400;2022-09-01T03:47:35;25.20;52.20
46754;DHT22;32500;50.620;3.400;2022-09-01T03:50:06;25.10;52.20
46754;DHT22;32500;50.620;3.400;2022-09-01T03:52:35;25.20;52.20
46754;DHT22;32500;50.620;3.400;2022-09-01T03:55:01;25.10;52.20
46754;DHT22;32500;50.620;3.400;2022-09-01T03:57:27;25.10;52.30
46754;DHT22;32500;50.620;3.400;2022-09-01T03:59:53;25.10;52.30
46754;DHT22;32500;50.620;3.400;2022-09-01T04:02:19;25.10;52.20
46754;DHT22;32500;50.620;3.400;2022-09-01T04:04:44;25.10;52.20
46754;DHT22;32500;50.620;3.400;2022-09-01T04:07:10;25.10;52.20
46754;DHT22;32500;50.620;3.400;2022-09-01T04:09:36;25.00;52.10
46754;DHT22;32500;50.620;3.400;2022-09-01T04:12:03;25.10;52.30
46754;DHT22;32500;50.620;3.400;2022-09-01T04:14:33;25.10;52.20
46754;DHT22;32500;50.620;3.400;2022-09-01T04:16:59;25.00;52.10
46754;DHT22;32500;50.620;3.400;2022-09-01T04:19:43;25.00;52.10
46754;DHT22;32500;50.620;3.400;2022-09-01T04:22:09;25.00;52.20
46754;DHT22;32500;50.620;3.400;2022-09-01T04:24:38;25.00;52.30
46754;DHT22;32500;50.620;3.400;2022-09-01T04:27:06;25.00;52.30
46754;DHT22;32500;50.620;3.400;2022-09-01T04:29:33;25.00;52.20
46754;DHT22;32500;50.620;3.400;2022-09-01T04:32:03;25.00;52.30
46754;DHT22;32500;50.620;3.400;2022-09-01T04:34:33;25.00;52.30
46754;DHT22;32500;50.620;3.400;2022-09-01T04:37:09;25.00;52.30
46754;DHT22;32500;50.620;3.400;2022-09-01T04:39:37;25.00;52.40
46754;DHT22;32500;50.620;3.400;2022-09-01T04:42:03;25.00;52.40
46754;DHT22;32500;50.620;3.400;2022-09-01T04:44:31;25.00;52.50
46754;DHT22;32500;50.620;3.400;2022-09-01T04:46:56;25.00;52.50
46754;DHT22;32500;50.620;3.400;2022-09-01T04:49:22;24.90;52.50
46754;DHT22;32500;50.620;3.400;2022-09-01T04:51:51;25.00;52.50
46754;DHT22;32500;50.620;3.400;2022-09-01T04:54:18;25.00;52.40
46754;DHT22;32500;50.620;3.400;2022-09-01T04:56:47;25.00;52.40
46754;DHT22;32500;50.620;3.400;2022-09-01T04:59:19;25.00;52.50
46754;DHT22;32500;50.620;3.400;2022-09-01T05:01:45;24.90;52.50
46754;DHT22;32500;50.620;3.400;2022-09-01T05:04:15;24.90;52.40
46754;DHT22;32500;50.620;3.400;2022-09-01T05:06:45;24.90;52.50
46754;DHT22;32500;50.620;3.400;2022-09-01T05:09:12;24.90;52.50
46754;DHT22;32500;50.620;3.400;2022-09-01T05:11:39;24.90;52.50
46754;DHT22;32500;50.620;3.400;2022-09-01T05:14:05;24.90;52.60
46754;DHT22;32500;50.620;3.400;2022-09-01T05:16:33;24.90;52.60
46754;DHT22;32500;50.620;3.400;2022-09-01T05:19:00;24.90;52.70
46754;DHT22;32500;50.620;3.400;2022-09-01T05:21:27;24.60;50.30
46754;DHT22;32500;50.620;3.400;2022-09-01T05:23:56;24.40;48.60
46754;DHT22;32500;50.620;3.400;2022-09-01T05:26:26;24.20;48.80
46754;DHT22;32500;50.620;3.400;2022-09-01T05:28:55;24.20;47.40
46754;DHT22;32500;50.620;3.400;2022-09-01T05:31:23;24.00;47.60
46754;DHT22;32500;50.620;3.400;2022-09-01T05:33:49;24.00;47.20
46754;DHT22;32500;50.620;3.400;2022-09-01T05:36:18;23.70;48.60
46754;DHT22;32500;50.620;3.400;2022-09-01T05:38:46;23.80;48.50
46754;DHT22;32500;50.620;3.400;2022-09-01T05:41:14;23.60;47.20
46754;DHT22;32500;50.620;3.400;2022-09-01T05:43:41;23.40;48.90
46754;DHT22;32500;50.620;3.400;2022-09-01T05:46:12;23.40;48.50
46754;DHT22;32500;50.620;3.400;2022-09-01T05:48:40;23.40;48.60
46754;DHT22;32500;50.620;3.400;2022-09-01T05:51:07;23.50;48.30
46754;DHT22;32500;50.620;3.400;2022-09-01T05:53:33;23.30;48.70
46754;DHT22;32500;50.620;3.400;2022-09-01T05:56:00;23.30;48.60
46754;DHT22;32500;50.620;3.400;2022-09-01T05:58:31;23.40;47.90
46754;DHT22;32500;50.620;3.400;2022-09-01T06:00:59;23.50;47.40
46754;DHT22;32500;50.620;3.400;2022-09-01T06:03:25;23.40;48.20
46754;DHT22;32500;50.620;3.400;2022-09-01T06:05:53;23.60;48.10
46754;DHT22;32500;50.620;3.400;2022-09-01T06:08:21;23.50;48.00
46754;DHT22;32500;50.620;3.400;2022-09-01T06:10:48;23.60;47.50
46754;DHT22;32500;50.620;3.400;2022-09-01T06:13:16;23.50;48.50
46754;DHT22;32500;50.620;3.400;2022-09-01T06:15:43;23.40;48.10
46754;DHT22;32500;50.620;3.400;2022-09-01T06:18:10;23.40;48.10
46754;DHT22;32500;50.620;3.400;2022-09-01T06:20:44;23.30;49.30
46754;DHT22;32500;50.620;3.400;2022-09-01T06:23:11;23.30;49.00
46754;DHT22;32500;50.620;3.400;2022-09-01T06:25:44;23.30;47.80
46754;DHT22;32500;50.620;3.400;2022-09-01T06:28:13;23.30;49.00
46754;DHT22;32500;50.620;3.400;2022-09-01T06:30:39;23.30;49.20
46754;DHT22;32500;50.620;3.400;2022-09-01T06:33:05;23.20;49.20
46754;DHT22;32500;50.620;3.400;2022-09-01T06:35:36;23.20;49.60
46754;DHT22;32500;50.620;3.400;2022-09-01T06:38:03;23.30;48.30
46754;DHT22;32500;50.620;3.400;2022-09-01T06:40:33;23.40;49.60
46754;DHT22;32500;50.620;3.400;2022-09-01T06:43:00;23.40;49.10
46754;DHT22;32500;50.620;3.400;2022-09-01T06:45:43;23.40;48.90
46754;DHT22;32500;50.620;3.400;2022-09-01T06:48:10;23.50;48.80
46754;DHT22;32500;50.620;3.400;2022-09-01T06:50:41;23.50;48.90
46754;DHT22;32500;50.620;3.400;2022-09-01T06:53:07;23.70;48.50
46754;DHT22;32500;50.620;3.400;2022-09-01T06:55:38;23.90;48.30
46754;DHT22;32500;50.620;3.400;2022-09-01T06:58:06;24.00;48.00
46754;DHT22;32500;50.620;3.400;2022-09-01T07:00:36;24.00;47.90
46754;DHT22;32500;50.620;3.400;2022-09-01T07:03:08;23.90;48.10
46754;DHT22;32500;50.620;3.400;2022-09-01T07:05:38;24.00;47.90
46754;DHT22;32500;50.620;3.400;2022-09-01T07:08:04;24.00;48.10
46754;DHT22;32500;50.620;3.400;2022-09-01T07:10:47;24.10;47.60
46754;DHT22;32500;50.620;3.400;2022-09-01T07:13:16;24.10;47.70
46754;DHT22;32500;50.620;3.400;2022-09-01T07:15:46;24.10;47.50
46754;DHT22;32500;50.620;3.400;2022-09-01T07:18:21;24.20;48.10
46754;DHT22;32500;50.620;3.400;2022-09-01T07:20:52;24.20;47.50
46754;DHT22;32500;50.620;3.400;2022-09-01T07:23:19;24.10;47.70
46754;DHT22;32500;50.620;3.400;2022-09-01T07:25:47;24.10;47.80
46754;DHT22;32500;50.620;3.400;2022-09-01T07:28:15;23.90;48.20
46754;DHT22;32500;50.620;3.400;2022-09-01T07:30:45;23.90;48.90
46754;DHT22;32500;50.620;3.400;2022-09-01T07:33:13;23.90;48.80
46754;DHT22;32500;50.620;3.400;2022-09-01T07:35:40;23.90;49.10
46754;DHT22;32500;50.620;3.400;2022-09-01T07:38:06;23.80;49.00
46754;DHT22;32500;50.620;3.400;2022-09-01T07:40:34;23.70;49.70
46754;DHT22;32500;50.620;3.400;2022-09-01T07:43:07;23.80;48.70
46754;DHT22;32500;50.620;3.400;2022-09-01T07:45:35;23.90;49.50
46754;DHT22;32500;50.620;3.400;2022-09-01T07:48:06;23.90;49.50
46754;DHT22;32500;50.620;3.400;2022-09-01T07:50:34;23.90;49.20
46754;DHT22;32500;50.620;3.400;2022-09-01T07:53:00;24.00;49.20
46754;DHT22;32500;50.620;3.400;2022-09-01T07:55:26;23.90;49.40
46754;DHT22;32500;50.620;3.400;2022-09-01T07:57:53;24.10;49.30
46754;DHT22;32500;50.620;3.400;2022-09-01T08:00:19;24.00;48.60
46754;DHT22;32500;50.620;3.400;2022-09-01T08:02:47;23.90;49.10
46754;DHT22;32500;50.620;3.400;2022-09-01T08:05:16;23.70;50.10
46754;DHT22;32500;50.620;3.400;2022-09-01T08:07:47;23.60;50.00
46754;DHT22;32500;50.620;3.400;2022-09-01T08:10:14;23.70;50.00
46754;DHT22;32500;50.620;3.400;2022-09-01T08:12:40;23.70;49.70
46754;DHT22;32500;50.620;3.400;2022-09-01T08:15:08;23.70;50.00
46754;DHT22;32500;50.620;3.400;2022-09-01T08:17:36;24.00;50.10
46754;DHT22;32500;50.620;3.400;2022-09-01T08:20:02;24.10;49.30
46754;DHT22;32500;50.620;3.400;2022-09-01T08:22:28;24.20;49.30
46754;DHT22;32500;50.620;3.400;2022-09-01T08:24:54;24.30;49.00
46754;DHT22;32500;50.620;3.400;2022-09-01T08:27:19;24.40;48.70
46754;DHT22;32500;50.620;3.400;2022-09-01T08:29:45;24.40;48.50
46754;DHT22;32500;50.620;3.400;2022-09-01T08:32:11;24.40;48.40
46754;DHT22;32500;50.620;3.400;2022-09-01T08:34:36;24.50;48.90
46754;DHT22;32500;50.620;3.400;2022-09-01T08:37:04;24.50;48.60
46754;DHT22;32500;50.620;3.400;2022-09-01T08:39:30;24.40;48.60
46754;DHT22;32500;50.620;3.400;2022-09-01T08:47:37;24.50;49.00
46754;DHT22;32500;50.620;3.400;2022-09-01T08:50:03;24.60;48.70
46754;DHT22;32500;50.620;3.400;2022-09-01T08:53:05;24.70;48.70
46754;DHT22;32500;50.620;3.400;2022-09-01T08:55:33;24.70;48.00
46754;DHT22;32500;50.620;3.400;2022-09-01T08:58:00;24.70;47.50
46754;DHT22;32500;50.620;3.400;2022-09-01T09:00:36;24.70;48.10
46754;DHT22;32500;50.620;3.400;2022-09-01T09:11:03;24.80;48.90
46754;DHT22;32500;50.620;3.400;2022-09-01T09:16:22;24.90;48.30
46754;DHT22;32500;50.620;3.400;2022-09-01T09:24:28;24.90;48.60
46754;DHT22;32500;50.620;3.400;2022-09-01T09:27:22;25.00;48.30
46754;DHT22;32500;50.620;3.400;2022-09-01T09:29:57;25.00;48.70
46754;DHT22;32500;50.620;3.400;2022-09-01T09:32:50;25.20;47.90
46754;DHT22;32500;50.620;3.400;2022-09-01T09:35:27;25.30;47.30
46754;DHT22;32500;50.620;3.400;2022-09-01T09:43:48;25.30;47.80
46754;DHT22;32500;50.620;3.400;2022-09-01T09:46:35;25.40;47.40
46754;DHT22;32500;50.620;3.400;2022-09-01T09:51:44;25.40;47.30
46754;DHT22;32500;50.620;3.400;2022-09-01T09:54:22;25.50;46.60
46754;DHT22;32500;50.620;3.400;2022-09-01T09:57:02;25.50;47.50
46754;DHT22;32500;50.620;3.400;2022-09-01T09:59:29;25.60;47.60
46754;DHT22;32500;50.620;3.400;2022-09-01T10:02:06;25.70;47.60
46754;DHT22;32500;50.620;3.400;2022-09-01T10:04:39;25.70;47.50
46754;DHT22;32500;50.620;3.400;2022-09-01T10:07:34;25.70;47.10
46754;DHT22;32500;50.620;3.400;2022-09-01T10:10:05;25.80;46.50
46754;DHT22;32500;50.620;3.400;2022-09-01T10:12:32;25.70;46.00
46754;DHT22;32500;50.620;3.400;2022-09-01T10:15:05;25.70;46.70
46754;DHT22;32500;50.620;3.400;2022-09-01T10:17:35;25.70;47.00
46754;DHT22;32500;50.620;3.400;2022-09-01T10:20:24;25.70;47.20
46754;DHT22;32500;50.620;3.400;2022-09-01T10:22:51;25.70;47.30
46754;DHT22;32500;50.620;3.400;2022-09-01T10:25:27;25.80;46.60
46754;DHT22;32500;50.620;3.400;2022-09-01T10:28:18;25.80;47.10
46754;DHT22;32500;50.620;3.400;2022-09-01T10:30:51;25.90;45.20
46754;DHT22;32500;50.620;3.400;2022-09-01T10:33:19;26.00;46.70
46754;DHT22;32500;50.620;3.400;2022-09-01T10:35:48;25.90;46.70
46754;DHT22;32500;50.620;3.400;2022-09-01T10:38:20;26.00;46.00
46754;DHT22;32500;50.620;3.400;2022-09-01T10:40:48;26.00;46.80
46754;DHT22;32500;50.620;3.400;2022-09-01T10:43:47;26.10;46.80
46754;DHT22;32500;50.620;3.400;2022-09-01T10:51:44;26.20;46.60
46754;DHT22;32500;50.620;3.400;2022-09-01T10:54:48;26.20;46.90
46754;DHT22;32500;50.620;3.400;2022-09-01T10:57:25;26.20;46.90
46754;DHT22;32500;50.620;3.400;2022-09-01T10:59:54;26.20;46.90
46754;DHT22;32500;50.620;3.400;2022-09-01T11:02:22;26.30;46.60
46754;DHT22;32500;50.620;3.400;2022-09-01T11:15:34;26.30;46.60
46754;DHT22;32500;50.620;3.400;2022-09-01T11:18:01;26.40;46.60
46754;DHT22;32500;50.620;3.400;2022-09-01T11:20:35;26.30;45.70
46754;DHT22;32500;50.620;3.400;2022-09-01T11:23:12;26.40;46.20
46754;DHT22;32500;50.620;3.400;2022-09-01T11:25:45;26.40;45.10
46754;DHT22;32500;50.620;3.400;2022-09-01T11:30:57;26.50;44.60
46754;DHT22;32500;50.620;3.400;2022-09-01T11:33:46;26.50;45.80
46754;DHT22;32500;50.620;3.400;2022-09-01T11:36:29;26.50;45.90
46754;DHT22;32500;50.620;3.400;2022-09-01T11:41:55;26.60;46.00
46754;DHT22;32500;50.620;3.400;2022-09-01T11:47:46;26.60;46.00
46754;DHT22;32500;50.620;3.400;2022-09-01T11:50:19;26.70;46.40
46754;DHT22;32500;50.620;3.400;2022-09-01T11:53:14;26.70;46.70
46754;DHT22;32500;50.620;3.400;2022-09-01T11:55:47;26.80;46.00
46754;DHT22;32500;50.620;3.400;2022-09-01T12:01:10;26.80;45.40
46754;DHT22;32500;50.620;3.400;2022-09-01T12:03:36;26.80;43.40
46754;DHT22;32500;50.620;3.400;2022-09-01T12:06:04;26.80;45.30
46754;DHT22;32500;50.620;3.400;2022-09-01T12:08:33;26.80;45.10
46754;DHT22;32500;50.620;3.400;2022-09-01T12:13:30;26.90;45.30
46754;DHT22;32500;50.620;3.400;2022-09-01T12:16:06;27.00;43.60
46754;DHT22;32500;50.620;3.400;2022-09-01T12:18:35;27.00;45.60
46754;DHT22;32500;50.620;3.400;2022-09-01T12:21:06;27.00;45.80
46754;DHT22;32500;50.620;3.400;2022-09-01T12:23:37;27.00;44.90
46754;DHT22;32500;50.620;3.400;2022-09-01T12:26:08;27.10;45.10
46754;DHT22;32500;50.620;3.400;2022-09-01T12:28:35;27.10;45.20
46754;DHT22;32500;50.620;3.400;2022-09-01T12:31:05;27.10;45.50
46754;DHT22;32500;50.620;3.400;2022-09-01T12:33:32;27.10;44.50
46754;DHT22;32500;50.620;3.400;2022-09-01T12:38:53;27.20;44.70
46754;DHT22;32500;50.620;3.400;2022-09-01T12:41:37;27.20;45.00
46754;DHT22;32500;50.620;3.400;2022-09-01T12:44:30;27.20;43.90
46754;DHT22;32500;50.620;3.400;2022-09-01T12:47:07;27.20;44.00
46754;DHT22;32500;50.620;3.400;2022-09-01T12:49:40;27.20;44.40
46754;DHT22;32500;50.620;3.400;2022-09-01T12:54:36;27.30;43.70
46754;DHT22;32500;50.620;3.400;2022-09-01T12:57:05;27.20;44.10
46754;DHT22;32500;50.620;3.400;2022-09-01T12:59:31;27.20;44.10
46754;DHT22;32500;50.620;3.400;2022-09-01T13:02:13;27.20;42.60
46754;DHT22;32500;50.620;3.400;2022-09-01T13:04:43;27.20;43.20
46754;DHT22;32500;50.620;3.400;2022-09-01T13:07:09;27.20;41.80
46754;DHT22;32500;50.620;3.400;2022-09-01T13:09:34;27.20;43.50
46754;DHT22;32500;50.620;3.400;2022-09-01T13:12:29;27.20;43.60
46754;DHT22;32500;50.620;3.400;2022-09-01T13:14:55;27.20;43.90
46754;DHT22;32500;50.620;3.400;2022-09-01T13:17:21;27.30;41.00
46754;DHT22;32500;50.620;3.400;2022-09-01T13:19:47;27.30;43.10
46754;DHT22;32500;50.620;3.400;2022-09-01T13:22:13;27.30;43.30
46754;DHT22;32500;50.620;3.400;2022-09-01T13:24:39;27.30;44.50
46754;DHT22;32500;50.620;3.400;2022-09-01T13:27:04;27.30;43.20
46754;DHT22;32500;50.620;3.400;2022-09-01T13:29:30;27.30;43.90
46754;DHT22;32500;50.620;3.400;2022-09-01T13:31:56;27.40;43.80
46754;DHT22;32500;50.620;3.400;2022-09-01T13:34:22;27.40;44.00
46754;DHT22;32500;50.620;3.400;2022-09-01T13:36:48;27.40;44.20
46754;DHT22;32500;50.620;3.400;2022-09-01T13:39:13;27.50;43.90
46754;DHT22;32500;50.620;3.400;2022-09-01T13:41:39;27.40;43.00
46754;DHT22;32500;50.620;3.400;2022-09-01T13:44:05;27.40;41.60
46754;DHT22;32500;50.620;3.400;2022-09-01T13:46:31;27.50;43.60
46754;DHT22;32500;50.620;3.400;2022-09-01T13:48:56;27.40;43.40
46754;DHT22;32500;50.620;3.400;2022-09-01T13:51:26;27.50;39.70
46754;DHT22;32500;50.620;3.400;2022-09-01T13:53:52;27.40;39.90
46754;DHT22;32500;50.620;3.400;2022-09-01T13:56:17;27.50;42.50
46754;DHT22;32500;50.620;3.400;2022-09-01T13:58:43;27.40;43.10
46754;DHT22;32500;50.620;3.400;2022-09-01T14:01:09;27.50;42.50
46754;DHT22;32500;50.620;3.400;2022-09-01T14:03:36;27.50;42.70
46754;DHT22;32500;50.620;3.400;2022-09-01T14:06:02;27.50;40.00
46754;DHT22;32500;50.620;3.400;2022-09-01T14:08:27;27.50;39.90
46754;DHT22;32500;50.620;3.400;2022-09-01T14:10:55;27.50;41.30
46754;DHT22;32500;50.620;3.400;2022-09-01T14:13:22;27.50;41.00
46754;DHT22;32500;50.620;3.400;2022-09-01T14:15:49;27.50;41.40
46754;DHT22;32500;50.620;3.400;2022-09-01T14:18:15;27.50;39.80
46754;DHT22;32500;50.620;3.400;2022-09-01T14:20:44;27.50;40.90
46754;DHT22;32500;50.620;3.400;2022-09-01T14:23:10;27.50;41.00
46754;DHT22;32500;50.620;3.400;2022-09-01T14:25:40;27.50;41.40
46754;DHT22;32500;50.620;3.400;2022-09-01T14:28:06;27.40;42.00
46754;DHT22;32500;50.620;3.400;2022-09-01T14:30:32;27.50;42.10
46754;DHT22;32500;50.620;3.400;2022-09-01T14:32:59;27.50;41.90
46754;DHT22;32500;50.620;3.400;2022-09-01T14:35:25;27.50;41.60
46754;DHT22;32500;50.620;3.400;2022-09-01T14:37:51;27.50;42.00
46754;DHT22;32500;50.620;3.400;2022-09-01T14:40:18;27.50;41.80
46754;DHT22;32500;50.620;3.400;2022-09-01T14:42:46;27.60;41.90
46754;DHT22;32500;50.620;3.400;2022-09-01T14:45:17;27.50;41.20
46754;DHT22;32500;50.620;3.400;2022-09-01T14:47:45;27.60;42.40
46754;DHT22;32500;50.620;3.400;2022-09-01T14:50:11;27.60;42.60
46754;DHT22;32500;50.620;3.400;2022-09-01T14:52:37;27.60;42.40
46754;DHT22;32500;50.620;3.400;2022-09-01T14:55:04;27.60;41.30
46754;DHT22;32500;50.620;3.400;2022-09-01T14:57:30;27.60;41.00
46754;DHT22;32500;50.620;3.400;2022-09-01T14:59:57;27.60;41.50
46754;DHT22;32500;50.620;3.400;2022-09-01T15:02:23;27.60;41.30
46754;DHT22;32500;50.620;3.400;2022-09-01T15:04:50;27.60;41.90
46754;DHT22;32500;50.620;3.400;2022-09-01T15:07:16;27.60;41.80
46754;DHT22;32500;50.620;3.400;2022-09-01T15:09:42;27.60;42.60
46754;DHT22;32500;50.620;3.400;2022-09-01T15:12:08;27.60;42.30
46754;DHT22;32500;50.620;3.400;2022-09-01T15:14:34;27.60;41.20
46754;DHT22;32500;50.620;3.400;2022-09-01T15:17:00;27.60;40.90
46754;DHT22;32500;50.620;3.400;2022-09-01T15:19:26;27.60;41.10
46754;DHT22;32500;50.620;3.400;2022-09-01T15:21:51;27.50;38.30
46754;DHT22;32500;50.620;3.400;2022-09-01T15:24:17;27.50;39.20
46754;DHT22;32500;50.620;3.400;2022-09-01T15:26:43;27.50;40.50
46754;DHT22;32500;50.620;3.400;2022-09-01T15:29:12;27.60;41.10
46754;DHT22;32500;50.620;3.400;2022-09-01T15:31:40;27.60;40.40
46754;DHT22;32500;50.620;3.400;2022-09-01T15:34:07;27.50;41.20
46754;DHT22;32500;50.620;3.400;2022-09-01T15:36:35;27.50;41.60
46754;DHT22;32500;50.620;3.400;2022-09-01T15:39:02;27.50;41.90
46754;DHT22;32500;50.620;3.400;2022-09-01T15:41:29;27.60;38.60
46754;DHT22;32500;50.620;3.400;2022-09-01T15:43:56;27.60;39.70
46754;DHT22;32500;50.620;3.400;2022-09-01T15:46:22;27.60;41.30
46754;DHT22;32500;50.620;3.400;2022-09-01T15:48:57;27.60;42.60
46754;DHT22;32500;50.620;3.400;2022-09-01T15:53:50;27.60;41.40
46754;DHT22;32500;50.620;3.400;2022-09-01T15:56:16;27.60;41.60
46754;DHT22;32500;50.620;3.400;2022-09-01T15:58:45;27.50;42.90
46754;DHT22;32500;50.620;3.400;2022-09-01T16:01:11;27.50;44.50
46754;DHT22;32500;50.620;3.400;2022-09-01T16:03:37;27.60;44.30
46754;DHT22;32500;50.620;3.400;2022-09-01T16:06:04;27.50;43.50
46754;DHT22;32500;50.620;3.400;2022-09-01T16:08:31;27.60;44.60
46754;DHT22;32500;50.620;3.400;2022-09-01T16:10:57;27.50;44.20
46754;DHT22;32500;50.620;3.400;2022-09-01T16:13:22;27.50;45.50
46754;DHT22;32500;50.620;3.400;2022-09-01T16:18:54;27.60;42.60
46754;DHT22;32500;50.620;3.400;2022-09-01T16:23:51;27.60;45.10
46754;DHT22;32500;50.620;3.400;2022-09-01T16:26:19;27.50;43.20
46754;DHT22;32500;50.620;3.400;2022-09-01T16:28:56;27.70;46.30
46754;DHT22;32500;50.620;3.400;2022-09-01T16:31:27;27.50;46.60
46754;DHT22;32500;50.620;3.400;2022-09-01T16:33:57;27.50;47.00
46754;DHT22;32500;50.620;3.400;2022-09-01T16:42:10;27.50;47.70
46754;DHT22;32500;50.620;3.400;2022-09-01T16:56:10;27.40;48.10
46754;DHT22;32500;50.620;3.400;2022-09-01T16:58:55;27.40;48.10
46754;DHT22;32500;50.620;3.400;2022-09-01T17:04:53;27.30;48.00
46754;DHT22;32500;50.620;3.400;2022-09-01T17:10:04;27.30;48.20
46754;DHT22;32500;50.620;3.400;2022-09-01T17:12:42;27.30;47.90
46754;DHT22;32500;50.620;3.400;2022-09-01T17:15:17;27.30;47.80
46754;DHT22;32500;50.620;3.400;2022-09-01T17:17:57;27.40;47.30
46754;DHT22;32500;50.620;3.400;2022-09-01T17:20:30;27.30;47.20
46754;DHT22;32500;50.620;3.400;2022-09-01T17:22:58;27.30;44.20
46754;DHT22;32500;50.620;3.400;2022-09-01T17:25:29;27.30;45.60